Time;durP1;ratioP1;P1;durP2;ratioP2;P2;SDS_P1;SDS_P2;PMS_P1;PMS_P2;Temp;Humidity;BMP_temperature;BMP_pressure;BME280_temperature;BME280_humidity;BME280_pressure;Samples;Min_cycle;Max_cycle;Signal;HPM_P1;HPM_P2
2022/12/03 00:04:08;;;;;;;19.10;9.38;;;;;;;0.35;100.00;101990.56;10418847;28;20505;-75
2022/12/03 00:09:10;;;;;;;17.37;8.73;;;;;;;0.35;100.00;101980.31;10418493;28;20117;-73
2022/12/03 00:14:14;;;;;;;19.60;10.13;;;;;;;0.35;100.00;101983.72;10418022;28;20461;-75
2022/12/03 00:19:16;;;;;;;20.08;9.73;;;;;;;0.38;100.00;101980.38;10417830;28;20077;-75
2022/12/03 00:24:17;;;;;;;16.53;7.83;;;;;;;0.37;100.00;101978.59;10413336;28;20076;-76
2022/12/03 00:29:20;;;;;;;15.90;8.57;;;;;;;0.41;100.00;101972.69;10400986;28;20108;-76
2022/12/03 00:34:23;;;;;;;16.75;9.38;;;;;;;0.37;100.00;101958.06;10417392;28;20059;-74
2022/12/03 00:39:25;;;;;;;16.95;9.40;;;;;;;0.40;100.00;101960.69;10417425;28;20084;-75
2022/12/03 00:44:28;;;;;;;13.13;7.83;;;;;;;0.37;100.00;101958.06;10416775;28;20063;-75
2022/12/03 00:49:30;;;;;;;15.20;8.10;;;;;;;0.38;100.00;101954.69;10415679;28;20060;-76
2022/12/03 00:54:33;;;;;;;21.40;9.10;;;;;;;0.41;100.00;101959.00;10413736;28;20064;-75
2022/12/03 00:59:36;;;;;;;20.27;9.50;;;;;;;0.41;100.00;101964.13;10416086;28;20121;-75
2022/12/03 01:04:39;;;;;;;15.40;8.75;;;;;;;0.41;100.00;101964.97;10416130;28;20124;-74
2022/12/03 01:09:41;;;;;;;15.80;8.68;;;;;;;0.39;100.00;101969.25;10416126;28;20468;-74
2022/12/03 01:14:44;;;;;;;19.13;9.70;;;;;;;0.41;100.00;101970.13;10415771;28;20116;-74
2022/12/03 01:19:46;;;;;;;14.68;9.10;;;;;;;0.40;100.00;101957.28;10414561;28;20129;-74
2022/12/03 01:24:47;;;;;;;15.33;9.73;;;;;;;0.42;100.00;101956.47;10411702;28;20498;-74
2022/12/03 01:29:50;;;;;;;22.17;11.20;;;;;;;0.44;100.00;101964.19;10414718;28;20053;-75
2022/12/03 01:34:55;;;;;;;18.63;8.90;;;;;;;0.43;100.00;101965.00;10414986;28;20436;-74
2022/12/03 01:39:57;;;;;;;23.48;11.00;;;;;;;0.42;100.00;101956.47;10414542;28;20133;-75
2022/12/03 01:45:01;;;;;;;20.20;9.40;;;;;;;0.45;100.00;101956.50;10414652;28;20059;-75
2022/12/03 01:50:08;;;;;;;25.83;10.98;;;;;;;0.45;100.00;101956.50;10415037;28;20553;-74
2022/12/03 01:55:16;;;;;;;20.02;11.18;;;;;;;0.44;100.00;101943.66;10411998;28;20460;-75
2022/12/03 02:00:23;;;;;;;10.30;7.03;;;;;;;0.43;100.00;101950.47;10413954;28;20100;-74
2022/12/03 02:05:30;;;;;;;21.15;10.27;;;;;;;0.48;100.00;101946.28;10413546;28;20093;-75
2022/12/03 02:10:35;;;;;;;22.10;11.82;;;;;;;0.47;100.00;101948.81;10413748;28;20467;-75
2022/12/03 02:15:40;;;;;;;18.45;10.82;;;;;;;0.45;100.00;101946.22;10413774;28;20471;-75
2022/12/03 02:20:50;;;;;;;18.85;10.73;;;;;;;0.45;100.00;101951.34;10413812;28;20062;-74
2022/12/03 02:25:53;;;;;;;17.77;9.80;;;;;;;0.47;100.00;101939.41;10411677;28;20059;-74
2022/12/03 02:30:54;;;;;;;15.60;9.15;;;;;;;0.42;100.00;101935.91;10413252;28;20079;-75
2022/12/03 02:35:56;;;;;;;20.67;12.15;;;;;;;0.46;100.00;101932.56;10411471;28;20070;-75
2022/12/03 02:41:07;;;;;;;20.67;11.90;;;;;;;0.45;100.00;101933.38;10411302;28;20494;-74
2022/12/03 02:46:09;;;;;;;22.98;11.90;;;;;;;0.46;100.00;101927.41;10410621;28;20136;-75
2022/12/03 02:51:11;;;;;;;17.25;10.02;;;;;;;0.45;100.00;101929.97;10411257;28;20625;-74
2022/12/03 02:56:20;;;;;;;18.38;11.18;;;;;;;0.47;100.00;101918.88;10408530;28;20542;-75
2022/12/03 03:01:22;;;;;;;18.00;10.27;;;;;;;0.49;100.00;101918.91;10410637;28;20168;-74
2022/12/03 03:06:25;;;;;;;24.93;9.80;;;;;;;0.48;100.00;101925.72;10410879;28;20105;-75
2022/12/03 03:11:28;;;;;;;22.23;10.93;;;;;;;0.46;100.00;101912.00;10410615;28;20306;-74
2022/12/03 03:16:30;;;;;;;20.30;11.38;;;;;;;0.50;100.00;101918.94;10414294;28;20129;-75
2022/12/03 03:21:32;;;;;;;15.00;9.63;;;;;;;0.48;100.00;101910.31;10418362;28;20059;-75
2022/12/03 03:26:36;;;;;;;21.67;11.55;;;;;;;0.49;100.00;101909.50;10416071;28;20065;-75
2022/12/03 03:31:40;;;;;;;18.90;9.65;;;;;;;0.45;100.00;101901.72;10417754;28;20060;-76
2022/12/03 03:36:42;;;;;;;24.92;12.73;;;;;;;0.50;100.00;101906.09;10417428;28;20433;-75
2022/12/03 03:41:46;;;;;;;23.02;12.18;;;;;;;0.47;100.00;101898.31;10417594;28;20062;-74
2022/12/03 03:46:48;;;;;;;23.25;12.60;;;;;;;0.47;100.00;101900.00;10416987;28;20474;-75
2022/12/03 03:51:50;;;;;;;18.73;10.25;;;;;;;0.46;100.00;101895.72;10417370;28;20085;-76
2022/12/03 03:56:53;;;;;;;24.65;13.23;;;;;;;0.49;100.00;101896.66;10414204;28;20109;-75
2022/12/03 04:01:55;;;;;;;21.27;11.25;;;;;;;0.48;100.00;101894.91;10416933;28;20088;-75
2022/12/03 04:06:57;;;;;;;16.17;8.38;;;;;;;0.46;100.00;101891.47;10416263;28;20073;-74
2022/12/03 04:17:19;;;;;;;21.33;11.75;;;;;;;0.47;100.00;101888.03;10416403;28;20539;-74
2022/12/03 04:38:20;;;;;;;26.17;13.35;;;;;;;0.49;100.00;101894.09;10415172;28;20153;-75
2022/12/03 04:43:23;;;;;;;22.03;12.00;;;;;;;0.46;100.00;101891.47;10415217;28;20423;-76
2022/12/03 04:48:25;;;;;;;22.60;11.90;;;;;;;0.46;100.00;101886.31;10414765;28;20538;-73
2022/12/03 04:53:26;;;;;;;23.02;12.98;;;;;;;0.42;100.00;101881.97;10414565;28;20082;-76
2022/12/03 04:58:29;;;;;;;19.37;11.57;;;;;;;0.45;100.00;101889.72;10412543;28;20089;-75
2022/12/03 05:03:31;;;;;;;20.75;11.18;;;;;;;0.49;100.00;101876.09;10414293;28;20347;-76
2022/12/03 05:08:33;;;;;;;26.80;13.47;;;;;;;0.44;100.00;101882.00;10413679;28;20112;-74
2022/12/03 05:13:36;;;;;;;21.13;11.43;;;;;;;0.41;100.00;101875.09;10414135;28;20099;-75
2022/12/03 05:18:38;;;;;;;23.80;11.98;;;;;;;0.44;100.00;101866.59;10413611;28;20376;-75
2022/12/03 05:23:41;;;;;;;26.98;13.55;;;;;;;0.43;100.00;101870.84;10413996;28;20096;-74
2022/12/03 05:28:44;;;;;;;25.00;10.80;;;;;;;0.42;100.00;101866.56;10410920;28;20444;-75
2022/12/03 05:33:46;;;;;;;30.60;12.98;;;;;;;0.41;100.00;101869.94;10413260;28;20067;-75
2022/12/03 05:38:47;;;;;;;11.97;6.03;;;;;;;0.37;100.00;101870.75;10412377;28;20160;-75
2022/12/03 05:43:52;;;;;;;26.73;12.30;;;;;;;0.41;100.00;101866.53;10412968;28;20072;-75
2022/12/03 05:48:53;;;;;;;26.05;12.45;;;;;;;0.41;100.00;101867.38;10412669;28;20366;-76
2022/12/03 05:53:55;;;;;;;23.07;11.67;;;;;;;0.36;100.00;101861.31;10411391;28;20067;-75
2022/12/03 05:58:58;;;;;;;23.43;12.30;;;;;;;0.40;100.00;101855.38;10409629;28;20135;-74
2022/12/03 06:03:59;;;;;;;23.00;13.07;;;;;;;0.37;100.00;101848.50;10412695;28;20116;-75
2022/12/03 06:09:01;;;;;;;24.13;11.20;;;;;;;0.41;100.00;101849.41;10411790;28;20123;-75
2022/12/03 06:14:06;;;;;;;20.97;10.73;;;;;;;0.36;100.00;101853.59;10411961;28;20091;-75
2022/12/03 06:19:07;;;;;;;24.23;13.50;;;;;;;0.39;100.00;101848.53;10411883;28;20405;-76
2022/12/03 06:24:10;;;;;;;16.40;10.27;;;;;;;0.37;100.00;101845.94;10409623;28;20126;-76
2022/12/03 06:29:13;;;;;;;;;;;;;;;0.38;100.00;101846.81;10411944;28;20076;-74
2022/12/03 06:34:15;;;;;;;24.15;12.60;;;;;;;0.42;100.00;101851.16;10411385;28;19941;-74
2022/12/03 06:39:17;;;;;;;30.38;14.50;;;;;;;0.40;100.00;101855.38;10411327;28;20080;-74
2022/12/03 06:44:20;;;;;;;26.35;12.63;;;;;;;0.39;100.00;101848.53;10411110;28;20065;-75
2022/12/03 06:49:22;;;;;;;24.35;12.23;;;;;;;0.38;100.00;101842.53;10411882;28;20118;-74
2022/12/03 06:54:24;;;;;;;24.00;14.03;;;;;;;0.39;100.00;101843.41;10417047;28;20073;-75
2022/12/03 06:59:27;;;;;;;25.67;13.23;;;;;;;0.38;100.00;101846.81;10419004;28;20345;-74
2022/12/03 07:04:28;;;;;;;25.02;12.32;;;;;;;0.37;100.00;101845.06;10418702;28;20076;-74
2022/12/03 07:09:30;;;;;;;23.57;11.30;;;;;;;0.32;100.00;101849.25;10418815;28;20064;-75
2022/12/03 07:14:33;;;;;;;24.57;13.63;;;;;;;0.35;100.00;101846.75;10419009;28;20082;-74
2022/12/03 07:19:34;;;;;;;28.88;11.80;;;;;;;0.29;100.00;101844.94;10418126;28;20078;-75
2022/12/03 07:24:36;;;;;;;23.33;12.47;;;;;;;0.29;100.00;101841.50;10416070;28;20060;-74
2022/12/03 07:29:39;;;;;;;20.77;12.07;;;;;;;0.28;100.00;101839.78;10418100;28;20308;-74
2022/12/03 07:34:41;;;;;;;25.90;12.85;;;;;;;0.32;100.00;101846.69;10417653;28;20071;-73
2022/12/03 07:39:42;;;;;;;27.70;13.03;;;;;;;0.34;100.00;101845.03;10417880;28;20142;-73
2022/12/03 07:44:47;;;;;;;18.53;10.10;;;;;;;0.33;100.00;101845.84;10417198;28;20475;-73
2022/12/03 07:49:49;;;;;;;23.20;11.40;;;;;;;0.35;100.00;101839.06;10417286;28;20058;-74
2022/12/03 07:54:50;;;;;;;21.00;10.07;;;;;;;0.33;100.00;101843.28;10415217;28;20061;-73
2022/12/03 07:59:53;;;;;;;22.93;12.23;;;;;;;0.37;100.00;101847.63;10416337;28;20411;-74
2022/12/03 08:04:55;;;;;;;22.08;12.23;;;;;;;0.43;100.00;101849.44;10415566;28;20066;-73
2022/12/03 08:09:56;;;;;;;24.23;10.57;;;;;;;0.37;100.00;101850.19;10416276;28;20193;-74
2022/12/03 08:15:19;;;;;;;25.85;13.02;;;;;;;0.40;100.00;101855.38;10383327;28;20067;-73
2022/12/03 08:20:25;;;;;;;21.70;10.20;;;;;;;0.35;100.00;101846.75;10415679;28;20089;-74
2022/12/03 08:25:30;;;;;;;23.25;12.57;;;;;;;0.43;100.00;101850.31;10413568;28;20059;-72
2022/12/03 08:30:33;;;;;;;24.77;11.13;;;;;;;0.49;100.00;101852.13;10415466;28;20090;-72
2022/12/03 08:35:35;;;;;;;17.33;9.55;;;;;;;0.54;100.00;101859.91;10415428;28;20058;-73
2022/12/03 08:40:41;;;;;;;11.17;7.50;;;;;;;0.49;100.00;101855.56;10415362;28;20079;-74
2022/12/03 08:45:45;;;;;;;20.45;10.73;;;;;;;0.58;100.00;101853.97;10414816;28;20103;-73
2022/12/03 08:50:47;;;;;;;20.30;9.38;;;;;;;0.65;100.00;101853.19;10414697;28;20071;-74
2022/12/03 08:55:53;;;;;;;28.83;12.07;;;;;;;0.70;100.00;101849.00;10412121;28;20509;-74
2022/12/03 09:01:02;;;;;;;21.88;10.45;;;;;;;0.65;100.00;101855.75;10414466;28;20089;-74
2022/12/03 09:06:04;;;;;;;25.77;10.60;;;;;;;0.54;100.00;101865.03;10414114;28;20068;-73
2022/12/03 09:11:06;;;;;;;;;;;;;;;0.50;100.00;101859.84;10414309;28;20096;-74
2022/12/03 09:16:09;;;;;;;13.85;7.32;;;;;;;0.50;100.00;101857.28;10413517;28;19940;-74
2022/12/03 09:21:11;;;;;;;12.68;7.53;;;;;;;0.49;100.00;101853.00;10413624;28;20109;-73
2022/12/03 09:26:12;;;;;;;22.93;9.57;;;;;;;0.55;100.00;101861.63;10411321;28;20057;-73
2022/12/03 09:31:16;;;;;;;17.27;9.67;;;;;;;0.54;100.00;101859.91;10413111;28;20056;-72
2022/12/03 09:36:18;;;;;;;23.40;10.32;;;;;;;0.55;100.00;101862.47;10412825;28;20456;-74
2022/12/03 09:41:19;;;;;;;18.73;10.23;;;;;;;0.49;100.00;101855.56;10413449;28;20142;-74
2022/12/03 09:46:23;;;;;;;21.38;10.52;;;;;;;0.48;100.00;101848.66;10412784;28;20108;-74
2022/12/03 09:51:32;;;;;;;20.38;9.48;;;;;;;0.47;100.00;101849.50;10412471;28;20057;-74
2022/12/03 09:56:37;;;;;;;22.48;10.80;;;;;;;0.41;100.00;101840.84;10409974;28;20119;-73
2022/12/03 10:01:41;;;;;;;21.30;9.90;;;;;;;0.37;100.00;101840.78;10412317;28;20095;-73
2022/12/03 10:06:42;;;;;;;22.00;10.20;;;;;;;0.38;100.00;101841.69;10412271;28;20185;-72
2022/12/03 10:11:44;;;;;;;17.50;9.03;;;;;;;0.35;100.00;101831.34;10411899;28;20470;-72
2022/12/03 10:16:48;;;;;;;22.20;9.02;;;;;;;0.35;100.00;101831.34;10411676;28;20067;-73
2022/12/03 10:21:50;;;;;;;22.42;9.98;;;;;;;0.35;100.00;101823.63;10411596;28;20612;-73
2022/12/03 10:26:54;;;;;;;13.55;8.68;;;;;;;0.28;100.00;101814.09;10409222;28;20059;-72
2022/12/03 10:32:00;;;;;;;11.40;7.40;;;;;;;0.22;100.00;101802.91;10411376;28;20067;-73
2022/12/03 10:37:12;;;;;;;13.80;6.95;;;;;;;0.26;100.00;101806.38;10411148;28;20459;-73
2022/12/03 10:42:15;;;;;;;10.95;7.43;;;;;;;0.36;100.00;101794.53;10411528;28;20059;-72
2022/12/03 10:47:19;;;;;;;18.88;9.68;;;;;;;0.32;100.00;101785.94;10411262;28;20090;-74
2022/12/03 10:52:23;;;;;;;12.18;7.18;;;;;;;0.24;100.00;101782.41;10410885;28;20471;-72
2022/12/03 10:57:25;;;;;;;17.40;9.35;;;;;;;0.45;100.00;101770.72;10408675;28;20090;-73
2022/12/03 11:02:28;;;;;;;18.30;9.82;;;;;;;0.52;100.00;101767.41;10410793;28;20152;-74
2022/12/03 11:07:31;;;;;;;17.98;8.90;;;;;;;0.43;100.00;101767.25;10412394;28;20127;-72
2022/12/03 11:12:34;;;;;;;23.88;10.43;;;;;;;0.49;100.00;101763.09;10412376;28;20060;-72
2022/12/03 11:17:49;;;;;;;20.73;10.00;;;;;;;0.61;100.00;101756.38;10412256;28;20167;-73
2022/12/03 11:22:55;;;;;;;17.52;10.07;;;;;;;0.52;100.00;101757.13;10412462;28;20069;-72
2022/12/03 11:28:35;;;;;;;11.88;7.97;;;;;;;0.56;100.00;101752.88;10409704;28;20069;-73
2022/12/03 11:33:42;;;;;;;16.35;9.40;;;;;;;0.48;100.00;101743.34;10412112;28;20065;-73
2022/12/03 11:38:55;;;;;;;10.82;5.55;;;;;;;0.36;100.00;101740.63;10415144;28;20079;-73
2022/12/03 11:44:29;;;;;;;20.77;9.77;;;;;;;0.38;100.00;101733.81;10419237;28;20070;-73
2022/12/03 11:49:44;;;;;;;20.88;10.85;;;;;;;0.36;100.00;101726.09;10414743;28;20072;-73
2022/12/03 11:54:51;;;;;;;21.23;9.88;;;;;;;0.55;100.00;101720.34;10415717;28;20068;-74
2022/12/03 12:00:05;;;;;;;14.40;8.60;;;;;;;0.40;100.00;101721.84;10377477;28;20103;-73
2022/12/03 12:05:25;;;;;;;18.65;10.32;;;;;;;0.40;100.00;101716.69;10377495;28;20063;-75
2022/12/03 12:10:46;;;;;;;19.70;10.77;;;;;;;0.42;100.00;101709.91;10377518;28;20070;-74
2022/12/03 12:15:49;;;;;;;16.98;9.90;;;;;;;0.40;100.00;101715.84;10377139;28;20148;-73
2022/12/03 12:20:52;;;;;;;20.98;10.10;;;;;;;0.31;100.00;101706.31;10377305;28;20128;-74
2022/12/03 12:26:06;;;;;;;18.35;10.65;;;;;;;0.40;100.00;101706.44;10374781;28;20119;-74
2022/12/03 12:31:11;;;;;;;14.60;8.18;;;;;;;0.38;100.00;101696.13;10377122;28;20109;-74
2022/12/03 12:36:15;;;;;;;16.73;10.07;;;;;;;0.43;100.00;101677.34;10376598;28;20062;-73
2022/12/03 12:41:17;;;;;;;11.80;8.32;;;;;;;0.48;100.00;101674.00;10375965;28;20131;-74
2022/12/03 12:46:21;;;;;;;24.53;11.27;;;;;;;0.49;100.00;101677.44;10376078;28;20061;-72
2022/12/03 12:51:25;;;;;;;18.45;10.45;;;;;;;0.49;100.00;101665.47;10374858;28;20374;-73
2022/12/03 12:56:31;;;;;;;18.13;10.13;;;;;;;0.43;100.00;101665.38;10373480;28;20065;-75
2022/12/03 13:01:34;;;;;;;19.60;11.35;;;;;;;0.59;100.00;101663.00;10375096;28;20095;-74
2022/12/03 13:06:39;;;;;;;19.92;10.38;;;;;;;0.60;100.00;101652.75;10374416;28;20155;-73
2022/12/03 13:11:44;;;;;;;17.65;10.07;;;;;;;0.53;100.00;101647.50;10375335;28;20060;-74
2022/12/03 13:16:49;;;;;;;23.15;12.55;;;;;;;0.43;100.00;101642.25;10375173;28;20070;-74
2022/12/03 13:21:54;;;;;;;24.58;11.73;;;;;;;0.32;100.00;101641.25;10374653;28;20094;-77
2022/12/03 13:26:59;;;;;;;16.50;9.82;;;;;;;0.25;100.00;101643.72;10372001;28;20069;-73
2022/12/03 13:32:11;;;;;;;27.90;11.75;;;;;;;0.31;100.00;101645.53;10374902;28;20064;-73
2022/12/03 13:37:20;;;;;;;17.67;9.23;;;;;;;0.26;100.00;101642.03;10374511;28;20066;-75
2022/12/03 13:42:40;;;;;;;21.77;11.80;;;;;;;0.36;100.00;101635.31;10374035;28;20080;-72
2022/12/03 13:47:45;;;;;;;16.95;9.88;;;;;;;0.26;100.00;101631.78;10373196;28;20061;-70
2022/12/03 13:52:50;;;;;;;26.48;12.68;;;;;;;0.35;100.00;101626.75;10373596;28;20062;-72
2022/12/03 13:57:52;;;;;;;26.10;11.13;;;;;;;0.47;100.00;101628.63;10372750;28;20294;-74
2022/12/03 14:02:55;;;;;;;19.97;10.63;;;;;;;0.35;100.00;101625.91;10404280;28;20450;-74
2022/12/03 14:08:00;;;;;;;26.35;10.38;;;;;;;0.40;100.00;101628.53;10414086;28;20059;-74
2022/12/03 14:13:03;;;;;;;21.90;10.70;;;;;;;0.34;100.00;101607.06;10413493;28;20480;-72
2022/12/03 14:18:05;;;;;;;16.75;9.48;;;;;;;0.32;100.00;101615.59;10413035;28;20073;-73
2022/12/03 14:23:08;;;;;;;25.83;12.98;;;;;;;0.41;100.00;101614.84;10411903;28;20061;-72
2022/12/03 14:28:11;;;;;;;22.35;11.65;;;;;;;0.34;100.00;101609.63;10410935;28;20062;-72
2022/12/03 14:33:13;;;;;;;30.23;13.27;;;;;;;0.28;100.00;101609.56;10413134;28;20060;-73
2022/12/03 14:38:17;;;;;;;24.97;13.33;;;;;;;0.31;100.00;101616.44;10413751;28;20128;-73
2022/12/03 14:43:19;;;;;;;24.23;11.60;;;;;;;0.25;100.00;101615.50;10413021;28;20089;-73
2022/12/03 14:48:21;;;;;;;28.47;13.20;;;;;;;0.25;100.00;101610.34;10413142;28;20065;-73
2022/12/03 14:53:24;;;;;;;19.13;9.63;;;;;;;0.18;100.00;101611.16;10409798;28;20080;-73
2022/12/03 14:58:25;;;;;;;26.08;11.98;;;;;;;0.19;100.00;101605.16;10410172;28;20140;-72
2022/12/03 15:03:27;;;;;;;21.90;11.90;;;;;;;0.24;100.00;101603.50;10393817;28;20077;-73
2022/12/03 15:08:30;;;;;;;30.20;10.93;;;;;;;0.09;100.00;101601.59;10412644;28;20056;-72
2022/12/03 15:13:32;;;;;;;21.90;11.48;;;;;;;0.12;100.00;101590.50;10416523;28;20377;-72
2022/12/03 15:18:35;;;;;;;25.13;12.97;;;;;;;0.16;100.00;101588.84;10417227;28;20837;-73
2022/12/03 15:23:39;;;;;;;15.38;9.50;;;;;;;0.08;100.00;101591.31;10418525;28;20075;-74
2022/12/03 15:28:40;;;;;;;24.42;11.73;;;;;;;0.07;100.00;101592.16;10417954;28;20457;-73
2022/12/03 15:33:42;;;;;;;22.38;11.48;;;;;;;0.06;100.00;101596.44;10420237;28;20098;-76
2022/12/03 15:38:45;;;;;;;23.40;11.17;;;;;;;-0.01;100.00;101599.75;10419298;28;20166;-76
2022/12/03 15:43:48;;;;;;;25.83;12.70;;;;;;;0.01;100.00;101590.38;10419927;28;20499;-73
2022/12/03 15:48:51;;;;;;;24.85;12.20;;;;;;;-0.01;100.00;101605.75;10419370;28;20116;-73
2022/12/03 15:53:55;;;;;;;21.13;9.98;;;;;;;-0.04;100.00;101600.56;10417972;28;20071;-73
2022/12/03 15:58:57;;;;;;;23.58;10.10;;;;;;;-0.01;100.00;101608.31;10412991;28;20593;-73
2022/12/03 16:03:58;;;;;;;25.80;12.80;;;;;;;0.03;100.00;101608.38;10415036;28;20063;-73
2022/12/03 16:09:01;;;;;;;20.77;11.33;;;;;;;-0.01;100.00;101605.75;10418290;28;20446;-74
2022/12/03 16:14:03;;;;;;;25.02;11.30;;;;;;;0.03;100.00;101604.06;10415088;28;20075;-73
2022/12/03 16:19:05;;;;;;;23.47;12.30;;;;;;;0.00;100.00;101596.38;10417860;28;20081;-74
2022/12/03 16:24:08;;;;;;;22.83;12.13;;;;;;;0.01;100.00;101589.50;10412773;28;20436;-73
2022/12/03 16:29:11;;;;;;;29.17;12.65;;;;;;;-0.01;100.00;101587.78;10416320;28;20117;-74
2022/12/03 16:34:13;;;;;;;29.38;12.40;;;;;;;-0.02;100.00;101586.06;10415946;28;20121;-73
2022/12/03 16:39:17;;;;;;;25.23;13.15;;;;;;;-0.02;100.00;101586.06;10415700;28;20123;-74
2022/12/03 16:44:31;;;;;;;26.35;13.10;;;;;;;-0.04;100.00;101582.59;10415789;28;20532;-73
2022/12/03 16:49:32;;;;;;;27.70;13.75;;;;;;;-0.03;100.00;101579.19;10415518;28;20065;-73
2022/12/03 16:54:35;;;;;;;29.83;13.03;;;;;;;0.01;100.00;101586.94;10413055;28;20127;-73
2022/12/03 16:59:37;;;;;;;29.63;13.00;;;;;;;-0.03;100.00;101586.03;10414929;28;20094;-73
2022/12/03 17:04:39;;;;;;;20.37;11.30;;;;;;;-0.06;100.00;101581.75;10414812;28;20395;-73
2022/12/03 17:09:42;;;;;;;20.85;12.45;;;;;;;-0.06;100.00;101584.31;10414710;28;20065;-71
2022/12/03 17:14:44;;;;;;;29.58;13.10;;;;;;;-0.09;100.00;101581.69;10414420;28;20551;-73
2022/12/03 17:19:45;;;;;;;22.27;11.75;;;;;;;-0.14;100.00;101591.00;10414132;28;20081;-73
2022/12/03 17:24:48;;;;;;;35.83;13.67;;;;;;;-0.15;100.00;101584.16;10411826;28;20071;-73
2022/12/03 17:29:50;;;;;;;29.33;13.43;;;;;;;-0.19;100.00;101583.25;10413644;28;20368;-73
2022/12/03 17:34:52;;;;;;;21.00;11.50;;;;;;;-0.25;100.00;101562.63;10413671;28;20071;-73
2022/12/03 17:39:56;;;;;;;35.30;12.97;;;;;;;-0.24;100.00;101563.50;10413038;28;20152;-73
2022/12/03 17:44:58;;;;;;;27.50;13.20;;;;;;;-0.31;100.00;101567.69;10413581;28;20319;-73
2022/12/03 17:50:00;;;;;;;28.27;13.57;;;;;;;-0.33;100.00;101565.09;10413055;28;20119;-72
2022/12/03 17:55:04;;;;;;;28.38;12.60;;;;;;;-0.33;100.00;101565.09;10411042;28;20068;-73
2022/12/03 18:00:07;;;;;;;31.85;11.85;;;;;;;-0.38;100.00;101555.63;10412771;28;20095;-73
2022/12/03 18:05:10;;;;;;;27.33;12.70;;;;;;;-0.38;100.00;101565.88;10413108;28;20124;-72
2022/12/03 18:10:13;;;;;;;39.22;14.63;;;;;;;-0.36;100.00;101559.06;10413143;28;20066;-73
2022/12/03 18:15:14;;;;;;;29.60;12.48;;;;;;;-0.38;100.00;101563.31;10412539;28;20165;-73
2022/12/03 18:20:16;;;;;;;23.10;9.95;;;;;;;-0.42;100.00;101564.94;10412683;28;20133;-73
2022/12/03 18:25:20;;;;;;;32.10;13.73;;;;;;;-0.37;100.00;101562.47;10410157;28;20060;-73
2022/12/03 18:30:21;;;;;;;26.05;13.73;;;;;;;-0.40;100.00;101555.59;10412614;28;20310;-73
2022/12/03 18:35:23;;;;;;;38.33;14.70;;;;;;;-0.35;100.00;101564.22;10412167;28;20067;-73
2022/12/03 18:40:28;;;;;;;27.63;13.48;;;;;;;-0.37;100.00;101568.47;10412305;28;20352;-73
2022/12/03 18:45:29;;;;;;;31.30;12.23;;;;;;;-0.40;100.00;101556.44;10412159;28;20068;-72
2022/12/03 18:50:31;;;;;;;25.30;13.57;;;;;;;-0.38;100.00;101551.34;10420423;28;20119;-73
2022/12/03 18:55:35;;;;;;;22.30;10.30;;;;;;;-0.41;100.00;101557.28;10417463;28;20122;-74
2022/12/03 19:00:37;;;;;;;24.83;11.43;;;;;;;-0.42;100.00;101549.56;10419634;28;20093;-73
2022/12/03 19:05:39;;;;;;;34.22;13.18;;;;;;;-0.37;100.00;101545.38;10419461;28;20070;-73
2022/12/03 19:10:43;;;;;;;12.07;8.33;;;;;;;-0.45;100.00;101549.53;10419811;28;20132;-73
2022/12/03 19:15:45;;;;;;;26.38;13.10;;;;;;;-0.41;100.00;101541.06;10418999;28;20376;-73
2022/12/03 19:20:48;;;;;;;24.65;11.45;;;;;;;-0.41;100.00;101541.06;10418965;28;20556;-74
2022/12/03 19:26:00;;;;;;;33.03;14.55;;;;;;;-0.39;100.00;101539.34;10416704;28;20071;-73
2022/12/03 19:31:07;;;;;;;23.10;12.50;;;;;;;-0.47;100.00;101535.81;10418603;28;20064;-73
2022/12/03 19:36:20;;;;;;;29.05;12.98;;;;;;;-0.47;100.00;101530.69;10418326;28;20070;-73
2022/12/03 19:41:29;;;;;;;22.00;11.90;;;;;;;-0.52;100.00;101536.63;10417868;28;20090;-72
2022/12/03 19:46:31;;;;;;;27.08;11.77;;;;;;;-0.53;100.00;101547.72;10417914;28;20070;-72
2022/12/03 19:51:33;;;;;;;31.70;13.98;;;;;;;-0.46;100.00;101558.06;10417823;28;20075;-72
2022/12/03 19:56:36;;;;;;;20.52;11.43;;;;;;;-0.48;100.00;101547.78;10415307;28;20115;-72
2022/12/03 20:01:39;;;;;;;35.22;14.20;;;;;;;-0.46;100.00;101540.09;10416232;28;20443;-73
2022/12/03 20:06:44;;;;;;;31.52;12.77;;;;;;;-0.54;100.00;101535.72;10417324;28;20178;-72
2022/12/03 20:11:50;;;;;;;33.78;15.27;;;;;;;-0.58;100.00;101533.09;10416766;28;20063;-74
2022/12/03 20:16:53;;;;;;;37.13;14.23;;;;;;;-0.58;100.00;101533.09;10417027;28;20079;-73
2022/12/03 20:21:55;;;;;;;34.70;14.20;;;;;;;-0.60;100.00;101540.78;10417045;28;20089;-73
2022/12/03 20:26:59;;;;;;;31.13;13.70;;;;;;;-0.62;100.00;101539.03;10414371;28;20122;-73
2022/12/03 20:32:00;;;;;;;32.47;14.52;;;;;;;-0.60;100.00;101540.78;10417905;28;20115;-73
2022/12/03 20:37:03;;;;;;;38.53;17.67;;;;;;;-0.62;100.00;101532.19;10417744;28;20072;-74
2022/12/03 20:42:09;;;;;;;34.28;15.02;;;;;;;-0.65;100.00;101516.78;10418175;28;20109;-73
2022/12/03 20:47:10;;;;;;;32.58;15.38;;;;;;;-0.67;100.00;101518.44;10416485;28;20073;-74
2022/12/03 20:52:13;;;;;;;22.52;11.35;;;;;;;-0.73;100.00;101513.19;10415687;28;20064;-73
2022/12/03 20:57:17;;;;;;;23.58;11.80;;;;;;;-0.74;100.00;101511.47;10414581;28;20113;-73
2022/12/03 21:02:18;;;;;;;38.08;15.18;;;;;;;-0.77;100.00;101512.31;10416680;28;20143;-73
2022/12/03 21:07:22;;;;;;;31.00;13.17;;;;;;;-0.81;100.00;101516.53;10416084;28;20068;-73
2022/12/03 21:12:25;;;;;;;35.80;15.30;;;;;;;-0.82;100.00;101513.94;10415314;28;20066;-73
2022/12/03 21:17:28;;;;;;;41.75;16.55;;;;;;;-0.81;100.00;101513.97;10415566;28;20071;-73
2022/12/03 21:22:30;;;;;;;32.20;14.77;;;;;;;-0.79;100.00;101509.72;10415323;28;20088;-73
2022/12/03 21:27:34;;;;;;;38.60;16.83;;;;;;;-0.83;100.00;101502.81;10413369;28;20092;-73
2022/12/03 21:32:36;;;;;;;35.85;16.10;;;;;;;-0.79;100.00;101496.91;10414711;28;20070;-72
2022/12/03 21:37:38;;;;;;;37.33;15.53;;;;;;;-0.84;100.00;101495.97;10414772;28;20068;-73
2022/12/03 21:42:41;;;;;;;27.63;11.77;;;;;;;-0.87;100.00;101501.03;10414387;28;20151;-72
2022/12/03 21:47:46;;;;;;;28.75;12.13;;;;;;;-0.86;100.00;101495.06;10414528;28;20061;-73
2022/12/03 21:52:50;;;;;;;25.77;14.02;;;;;;;-0.86;100.00;101487.38;10414197;28;20061;-72
2022/12/03 21:57:53;;;;;;;40.38;15.52;;;;;;;-0.88;100.00;101494.22;10412338;28;20079;-73
2022/12/03 22:02:54;;;;;;;27.40;14.52;;;;;;;-0.87;100.00;101485.66;10413652;28;20095;-73
2022/12/03 22:07:57;;;;;;;28.40;14.40;;;;;;;-0.88;100.00;101491.63;10413867;28;20122;-73
2022/12/03 22:13:00;;;;;;;27.02;13.07;;;;;;;-0.85;100.00;101498.50;10413606;28;20072;-73
2022/12/03 22:18:03;;;;;;;28.77;14.18;;;;;;;-0.85;100.00;101504.50;10413221;28;20091;-73
2022/12/03 22:23:05;;;;;;;34.45;15.30;;;;;;;-0.79;100.00;101503.72;10412805;28;20087;-73
2022/12/03 22:28:08;;;;;;;40.77;17.17;;;;;;;-0.78;100.00;101505.47;10411242;28;20068;-73
2022/12/03 22:33:09;;;;;;;36.53;14.90;;;;;;;-0.76;100.00;101502.94;10413070;28;20069;-73
2022/12/03 22:38:11;;;;;;;31.70;14.27;;;;;;;-0.78;100.00;101490.91;10413401;28;20069;-73
2022/12/03 22:43:14;;;;;;;32.40;13.53;;;;;;;-0.75;100.00;101484.13;10413237;28;20087;-74
2022/12/03 22:48:17;;;;;;;46.13;16.17;;;;;;;-0.76;100.00;101482.41;10413654;28;20111;-73
2022/12/03 22:53:19;;;;;;;35.78;13.13;;;;;;;-0.80;100.00;101492.63;10413368;28;20068;-73
2022/12/03 22:58:23;;;;;;;;;;;;;;;-0.76;100.00;101478.13;10411517;28;20063;-73
2022/12/03 23:03:24;;;;;;;39.55;14.70;;;;;;;-0.76;100.00;101477.28;10412568;28;20025;-73
2022/12/03 23:08:26;;;;;;;26.95;11.50;;;;;;;-0.76;100.00;101478.13;10412987;28;20066;-73